Flight Track Log - Related Links

Times and Time Zones

All times are in EDT time to prevent confusion due to time zone crossing. See the FIN666 flight status page for this flight to view local times or setup timezone preferences in your user account.

Time Position Orientation Groundspeed Altitude Reporting Facility
EDT Latitude Longitude Course Direction KTS MPH feet Rate Location/Type
Fri 08:21:00 AM 55.8556 13.1474 49° Northeast  Level Estimated
Fri 08:22:00 AM 55.9343 13.3125 50° Northeast  Level Estimated
Fri 08:23:00 AM 56.0129 13.4784 50° Northeast  Level Estimated
Fri 08:24:00 AM 56.0912 13.6449 50° Northeast  Level Estimated
Fri 08:25:00 AM 56.1718 13.8173 50° Northeast  Level Estimated
Fri 08:26:00 AM 56.2521 13.9904 50° Northeast  Level Estimated
Fri 08:27:00 AM 56.3322 14.1643 50° Northeast  Level Estimated
Fri 08:28:00 AM 56.4120 14.3388 50° Northeast  Level Estimated
Fri 08:29:00 AM 56.4916 14.5142 51° Northeast  Level Estimated
Fri 08:30:00 AM 56.5709 14.6902 51° Northeast  Level Estimated
Fri 08:31:00 AM 56.6499 14.8670 51° Northeast  Level Estimated
Fri 08:32:00 AM 56.7288 15.0445 51° Northeast  Level Estimated
Fri 08:33:00 AM 56.8073 15.2228 51° Northeast  Level Estimated
Fri 08:34:00 AM 56.8856 15.4018 51° Northeast  Level Estimated
Fri 08:35:00 AM 56.9637 15.5816 51° Northeast  Level Estimated
Fri 08:36:00 AM 57.0415 15.7621 52° Northeast  Level Estimated
Fri 08:37:00 AM 57.1190 15.9434 52° Northeast  Level Estimated
Fri 08:38:00 AM 57.1963 16.1255 52° Northeast  Level Estimated
Fri 08:39:00 AM 57.2733 16.3083 52° Northeast  Level Estimated
Fri 08:40:00 AM 57.3501 16.4919 52° Northeast  Level Estimated
Fri 08:41:00 AM 57.4266 16.6762 52° Northeast  Level Estimated
Fri 08:42:00 AM 57.5028 16.8613 52° Northeast  Level Estimated
Fri 08:43:00 AM 57.5787 17.0472 53° Northeast  Level Estimated
Fri 08:44:00 AM 57.6544 17.2339 53° Northeast  Level Estimated
Fri 08:45:00 AM 57.7297 17.4213 53° Northeast  Level Estimated
Fri 08:46:00 AM 57.8048 17.6095 53° Northeast  Level Estimated
Fri 08:47:00 AM 57.8797 17.7985 53° Northeast  Level Estimated
Fri 08:48:00 AM 57.9542 17.9883 53° Northeast  Level Estimated
Fri 08:49:00 AM 58.0285 18.1789 54° Northeast  Level Estimated
Fri 08:50:00 AM 58.1024 18.3703 54° Northeast  Level Estimated
Fri 08:51:00 AM 58.1761 18.5625 54° Northeast  Level Estimated
Fri 08:52:00 AM 58.2495 18.7554 54° Northeast  Level Estimated
Fri 08:53:00 AM 58.3226 18.9492 54° Northeast  Level Estimated
Fri 08:54:00 AM 58.3954 19.1437 54° Northeast  Level Estimated
Fri 08:55:00 AM 58.4679 19.3391 55° Northeast  Level Estimated
Fri 08:56:00 AM 58.5402 19.5353 55° Northeast  Level Estimated
Fri 08:57:00 AM 58.6121 19.7323 55° Northeast  Level Estimated
Fri 08:58:00 AM 58.6837 19.9300 55° Northeast  Level Estimated
Fri 08:59:00 AM 58.7550 20.1287 55° Northeast  Level Estimated
Fri 09:00:00 AM 58.8260 20.3281 55° Northeast  Level Estimated
Fri 09:01:00 AM 58.8967 20.5283 56° Northeast  Level Estimated
Fri 09:02:00 AM 58.9671 20.7294 56° Northeast  Level Estimated
Fri 09:03:00 AM 59.0372 20.9312 56° Northeast  Level Estimated
Fri 09:04:00 AM 59.1069 21.1339 56° Northeast  Level Estimated
Fri 09:05:00 AM 59.1763 21.3375 56° Northeast  Level Estimated
Fri 09:06:00 AM 59.2455 21.5418 56° Northeast  Level Estimated
Fri 09:07:00 AM 59.3143 21.7470 57° Northeast  Level Estimated
Fri 09:08:00 AM 59.3827 21.9530 57° Northeast  Level Estimated
Fri 09:09:00 AM 59.4509 22.1598 57° Northeast  Level Estimated
Fri 09:10:00 AM 59.5187 22.3675 57° Northeast  Level Estimated
Fri 09:11:00 AM 59.5862 22.5760 57° Northeast  Level Estimated
Fri 09:12:00 AM 59.6533 22.7854 58° Northeast  Level Estimated
Fri 09:13:00 AM 59.7202 22.9956 58° Northeast  Level Estimated
Fri 09:14:00 AM 59.7866 23.2066 58° Northeast  Level Estimated
Fri 09:15:00 AM 59.8528 23.4184 58° Northeast  Level Estimated
Fri 09:16:00 AM 59.9186 23.6311 58° Northeast  Level Estimated
Fri 09:17:00 AM 59.9840 23.8447 58° Northeast  Level Estimated
Fri 09:18:00 AM 60.0491 24.0591 59° Northeast  Level Estimated
Fri 09:19:00 AM 60.1139 24.2743 59° Northeast  Level Estimated
Fri 09:20:00 AM 60.1783 24.4904 59° Northeast  Level Estimated
Fri 09:21:00 AM 60.2424 24.7073 59° Northeast  Level Estimated
Fri 09:22:00 AM 60.3061 24.9251 59° Northeast  Level Estimated
Fri 09:23:00 AM 60.3172 24.9633 60° Northeast  Level Estimated
Fri 09:24:00 AM 60.3172 24.9633 37° Northeast  Level Estimated
Fri 09:25:00 AM 60.3172 24.9633 37° Northeast  Level Estimated
Fri 09:26:00 AM 60.3172 24.9633 37° Northeast  Level Estimated
Fri 09:27:00 AM 60.3172 24.9633 37° Northeast  Level Estimated
Fri 09:28:00 AM 60.3172 24.9633 37° Northeast  Level Estimated
Fri 09:29:00 AM 60.3172 24.9633 37° Northeast  Level Estimated
Fri 09:30:00 AM 60.3172 24.9633 37° Northeast  Level Estimated
Fri 09:31:00 AM 60.3172 24.9633 37° Northeast  Level Estimated
Fri 09:32:00 AM 60.3172 24.9633 37° Northeast  Level Estimated
Fri 09:33:00 AM 60.3172 24.9633 37° Northeast  Level Estimated
Fri 09:34:00 AM 60.3172 24.9633 37° Northeast  Level Estimated

Login

Don't have an account? Register now (free) for customized features, flight alerts, and more!